Time;durP1;ratioP1;P1;durP2;ratioP2;P2;SDS_P1;SDS_P2;PMS_P1;PMS_P2;Temp;Humidity;BMP_temperature;BMP_pressure;BME280_temperature;BME280_humidity;BME280_pressure;Samples;Min_cycle;Max_cycle;Signal;HPM_P1;HPM_P2
2021/06/19 00:00:14;;;;;;;17.10;10.13;;;23.80;86.40;;;;;;5159817;27;20210;-69
2021/06/19 00:02:42;;;;;;;10.77;9.67;;;23.70;86.40;;;;;;5165560;27;20302;-69
2021/06/19 00:05:12;;;;;;;19.63;11.03;;;23.70;86.50;;;;;;5165246;27;20248;-69
2021/06/19 00:07:40;;;;;;;11.77;9.60;;;23.70;86.70;;;;;;5166755;27;20210;-69
2021/06/19 00:10:08;;;;;;;9.90;7.90;;;23.70;86.60;;;;;;5163399;27;20692;-69
2021/06/19 00:12:37;;;;;;;10.93;8.80;;;23.70;86.50;;;;;;5166952;27;20218;-69
2021/06/19 00:15:06;;;;;;;11.10;9.07;;;23.70;86.30;;;;;;5164607;27;20743;-69
2021/06/19 00:17:35;;;;;;;12.83;11.63;;;23.70;86.20;;;;;;5166232;27;20330;-69
2021/06/19 00:20:08;;;;;;;13.97;10.70;;;23.80;86.10;;;;;;5163257;27;20202;-69
2021/06/19 00:22:35;;;;;;;12.23;10.00;;;23.70;86.20;;;;;;5159495;27;20259;-69
2021/06/19 00:25:04;;;;;;;11.10;9.67;;;23.70;86.10;;;;;;5164257;27;20211;-69
2021/06/19 00:27:31;;;;;;;17.27;10.40;;;23.70;86.10;;;;;;5164952;27;20575;-69
2021/06/19 00:29:58;;;;;;;10.97;9.77;;;23.60;86.00;;;;;;5163406;27;20215;-69
2021/06/19 00:32:25;;;;;;;11.50;10.10;;;23.60;86.10;;;;;;5164736;27;20882;-69
2021/06/19 00:34:52;;;;;;;10.70;9.60;;;23.60;86.20;;;;;;5163262;27;20259;-69
2021/06/19 00:37:19;;;;;;;14.87;10.47;;;23.60;86.30;;;;;;5166493;27;20234;-69
2021/06/19 00:39:46;;;;;;;15.03;9.73;;;23.60;86.40;;;;;;5163193;27;20263;-69
2021/06/19 00:42:18;;;;;;;15.70;10.60;;;23.60;86.10;;;;;;5166788;27;20206;-69
2021/06/19 00:44:45;;;;;;;12.10;10.30;;;23.50;86.10;;;;;;5160890;27;20643;-69
2021/06/19 00:47:12;;;;;;;15.70;12.03;;;23.50;86.00;;;;;;5165421;27;20275;-69
2021/06/19 00:49:40;;;;;;;14.43;11.60;;;23.50;86.20;;;;;;5160650;27;20287;-69
2021/06/19 00:52:07;;;;;;;15.63;10.70;;;23.40;86.40;;;;;;5162581;27;20215;-69
2021/06/19 00:54:34;;;;;;;12.97;11.77;;;23.30;86.10;;;;;;5144740;27;20313;-69
2021/06/19 00:57:02;;;;;;;15.07;12.10;;;23.30;86.40;;;;;;5138377;27;20236;-69
2021/06/19 00:59:29;;;;;;;12.90;11.60;;;23.20;86.60;;;;;;5140317;27;20943;-69
2021/06/19 01:01:56;;;;;;;12.60;10.80;;;23.20;86.60;;;;;;5137449;27;20211;-69
2021/06/19 01:04:23;;;;;;;15.80;11.40;;;23.20;86.60;;;;;;5149880;27;20207;-69
2021/06/19 01:06:50;;;;;;;12.37;10.23;;;23.20;86.50;;;;;;5147441;27;20267;-69
2021/06/19 01:09:17;;;;;;;11.73;10.37;;;23.20;86.30;;;;;;5145084;27;20694;-69
2021/06/19 01:11:45;;;;;;;16.30;10.50;;;23.20;86.10;;;;;;5146188;27;20271;-69
2021/06/19 01:14:12;;;;;;;14.27;12.40;;;23.10;85.80;;;;;;5150084;27;20275;-69
2021/06/19 01:16:43;;;;;;;15.10;12.20;;;23.10;86.20;;;;;;5143491;27;20280;-69
2021/06/19 01:19:10;;;;;;;14.03;10.10;;;23.00;86.80;;;;;;5143801;27;20212;-69
2021/06/19 01:21:38;;;;;;;12.63;11.23;;;23.00;86.50;;;;;;5147994;27;20593;-69
2021/06/19 01:24:05;;;;;;;14.70;11.87;;;22.90;86.10;;;;;;5148452;27;20222;-69
2021/06/19 01:26:32;;;;;;;17.37;11.67;;;22.90;86.60;;;;;;5146832;27;20531;-69
2021/06/19 01:28:59;;;;;;;17.10;10.70;;;22.80;86.70;;;;;;5147667;27;20221;-69
2021/06/19 01:31:27;;;;;;;15.90;11.03;;;22.80;86.60;;;;;;5142525;27;20546;-69
2021/06/19 01:33:55;;;;;;;15.97;10.67;;;22.80;86.50;;;;;;5148811;27;20225;-69
2021/06/19 01:36:23;;;;;;;14.97;13.37;;;22.80;86.40;;;;;;5148813;27;20235;-69
2021/06/19 01:38:53;;;;;;;17.60;12.30;;;22.90;87.00;;;;;;5147957;27;20227;-69
2021/06/19 01:41:20;;;;;;;18.20;12.67;;;22.80;86.50;;;;;;5146567;27;20592;-69
2021/06/19 01:43:49;;;;;;;20.00;12.40;;;22.80;86.60;;;;;;5149417;27;20606;-69
2021/06/19 01:46:16;;;;;;;15.50;11.07;;;22.80;86.60;;;;;;5138372;27;20688;-69
2021/06/19 01:48:43;;;;;;;16.63;12.50;;;22.80;86.60;;;;;;5148829;27;20659;-69
2021/06/19 01:51:11;;;;;;;16.17;13.20;;;22.80;86.80;;;;;;5146923;27;20212;-69
2021/06/19 01:53:43;;;;;;;14.17;12.77;;;22.80;87.20;;;;;;5155495;27;20298;-69
2021/06/19 01:56:12;;;;;;;19.03;13.67;;;22.80;87.20;;;;;;5169448;27;20671;-69
2021/06/19 01:58:40;;;;;;;19.77;11.53;;;22.80;87.20;;;;;;5166051;27;20218;-69
2021/06/19 02:01:10;;;;;;;17.30;13.00;;;22.80;87.10;;;;;;5161972;27;20206;-69
2021/06/19 02:03:37;;;;;;;16.07;12.03;;;22.80;87.00;;;;;;5167878;27;20211;-69
2021/06/19 02:06:06;;;;;;;18.63;13.10;;;22.70;86.50;;;;;;5168022;27;20282;-69
2021/06/19 02:08:34;;;;;;;16.63;14.13;;;22.70;86.40;;;;;;5168725;27;20554;-69
2021/06/19 02:11:02;;;;;;;16.23;14.53;;;22.60;86.80;;;;;;5147916;27;20579;-69
2021/06/19 02:13:30;;;;;;;19.30;15.03;;;22.70;87.50;;;;;;5161177;27;20210;-69
2021/06/19 02:15:57;;;;;;;18.00;14.43;;;22.70;87.90;;;;;;5165131;27;20578;-69
2021/06/19 02:18:25;;;;;;;17.67;14.60;;;22.70;88.10;;;;;;5169088;27;20210;-69
2021/06/19 02:20:53;;;;;;;17.03;15.23;;;22.70;88.20;;;;;;5168028;27;20260;-69
2021/06/19 02:23:21;;;;;;;22.40;15.90;;;22.60;88.30;;;;;;5168185;27;20255;-70
2021/06/19 02:25:52;;;;;;;16.63;14.97;;;22.60;88.40;;;;;;5170006;27;20214;-70
2021/06/19 02:28:23;;;;;;;19.43;14.63;;;22.60;88.50;;;;;;5161590;27;20211;-70
2021/06/19 02:30:55;;;;;;;18.20;16.20;;;22.60;88.60;;;;;;5168210;27;20214;-69
2021/06/19 02:33:23;;;;;;;17.97;15.90;;;22.60;88.50;;;;;;5168332;27;20207;-69
2021/06/19 02:35:51;;;;;;;19.90;16.57;;;22.60;88.40;;;;;;5166277;27;20662;-69
2021/06/19 02:38:20;;;;;;;22.50;17.93;;;22.60;88.00;;;;;;5169213;27;20238;-69
2021/06/19 02:40:48;;;;;;;24.40;18.20;;;22.60;87.80;;;;;;5169540;27;20275;-69
2021/06/19 02:43:16;;;;;;;20.57;17.23;;;22.70;87.50;;;;;;5168336;27;20223;-69
2021/06/19 02:45:44;;;;;;;20.57;17.00;;;22.60;87.00;;;;;;5163341;27;20583;-69
2021/06/19 02:48:11;;;;;;;25.80;18.30;;;22.60;86.80;;;;;;5167388;27;20279;-69
2021/06/19 02:50:42;;;;;;;20.30;18.20;;;22.60;86.70;;;;;;5166050;27;20641;-69
2021/06/19 02:53:11;;;;;;;21.40;18.03;;;22.60;86.40;;;;;;5159547;27;20211;-69
2021/06/19 02:55:41;;;;;;;23.80;17.60;;;22.60;86.30;;;;;;5168479;27;20207;-69
2021/06/19 02:58:09;;;;;;;20.57;18.20;;;22.50;86.10;;;;;;5142183;27;20230;-70
2021/06/19 03:00:36;;;;;;;21.83;17.63;;;22.50;86.00;;;;;;5167305;27;20263;-70
2021/06/19 03:03:05;;;;;;;19.73;17.00;;;22.50;85.80;;;;;;5166010;27;20588;-70
2021/06/19 03:05:36;;;;;;;19.83;17.67;;;22.40;85.80;;;;;;5168761;27;20211;-70
2021/06/19 03:08:03;;;;;;;21.03;17.33;;;22.40;85.80;;;;;;5162120;27;20215;-70
2021/06/19 03:10:41;;;;;;;24.43;18.10;;;22.40;85.60;;;;;;5164906;27;20222;-70
2021/06/19 03:13:08;;;;;;;19.73;17.00;;;22.40;85.50;;;;;;5165758;27;20214;-70
2021/06/19 03:15:35;;;;;;;20.93;17.57;;;22.40;85.50;;;;;;5165942;27;20206;-70
2021/06/19 03:18:02;;;;;;;21.93;16.40;;;22.40;85.30;;;;;;5160557;27;20237;-70
2021/06/19 03:20:29;;;;;;;19.47;15.97;;;22.40;85.00;;;;;;5168884;27;20214;-70
2021/06/19 03:23:01;;;;;;;18.27;15.43;;;22.40;84.70;;;;;;5163211;27;20207;-70
2021/06/19 03:25:38;;;;;;;19.77;16.50;;;22.40;84.00;;;;;;5166258;27;20211;-70
2021/06/19 03:28:06;;;;;;;17.33;15.50;;;22.20;83.20;;;;;;5160510;27;20226;-70
2021/06/19 03:30:35;;;;;;;22.30;16.97;;;22.20;82.80;;;;;;5167659;27;20210;-70
2021/06/19 03:33:03;;;;;;;20.63;16.30;;;22.10;82.70;;;;;;5165966;27;20244;-69
2021/06/19 03:35:31;;;;;;;21.87;15.63;;;22.10;83.10;;;;;;5165878;27;20211;-69
2021/06/19 03:37:59;;;;;;;23.17;16.33;;;22.10;83.30;;;;;;5167271;27;20230;-69
2021/06/19 03:40:27;;;;;;;22.07;18.13;;;22.10;83.30;;;;;;5160953;27;20274;-69
2021/06/19 03:42:55;;;;;;;19.57;16.43;;;22.10;83.20;;;;;;5160641;27;20585;-68
2021/06/19 03:45:25;;;;;;;21.47;16.30;;;22.10;83.30;;;;;;5139756;27;20743;-68
2021/06/19 03:47:54;;;;;;;19.43;16.63;;;22.10;83.20;;;;;;5168381;27;20211;-68
2021/06/19 03:50:23;;;;;;;27.57;17.07;;;22.10;83.00;;;;;;5149698;27;20225;-68
2021/06/19 03:52:53;;;;;;;22.40;16.03;;;22.10;82.80;;;;;;5164634;27;20214;-68
2021/06/19 03:55:21;;;;;;;18.10;15.93;;;22.20;82.80;;;;;;5160187;27;20243;-68
2021/06/19 03:57:48;;;;;;;18.37;15.27;;;22.20;82.60;;;;;;5167059;27;20776;-68
2021/06/19 04:00:17;;;;;;;25.13;15.40;;;22.20;82.30;;;;;;5165083;27;20214;-68
2021/06/19 04:02:46;;;;;;;18.33;14.50;;;22.30;82.20;;;;;;5165376;27;20563;-68
2021/06/19 04:05:14;;;;;;;19.33;14.97;;;22.30;82.10;;;;;;5148497;27;20206;-67
2021/06/19 04:07:44;;;;;;;20.17;14.90;;;22.40;81.80;;;;;;5164115;27;20624;-68
2021/06/19 04:10:12;;;;;;;16.47;14.77;;;22.50;81.60;;;;;;5159803;27;20652;-68
2021/06/19 04:12:40;;;;;;;18.10;13.63;;;22.60;81.30;;;;;;5147003;27;20217;-68
2021/06/19 04:15:09;;;;;;;19.47;15.10;;;22.70;80.80;;;;;;5163072;27;20211;-68
2021/06/19 04:17:37;;;;;;;22.37;13.30;;;22.80;80.60;;;;;;5164601;27;20230;-68
2021/06/19 04:20:06;;;;;;;20.43;12.13;;;22.90;80.20;;;;;;5166172;27;20259;-68
2021/06/19 04:22:34;;;;;;;12.20;10.77;;;23.00;79.70;;;;;;5167572;27;20648;-68
2021/06/19 04:25:02;;;;;;;12.43;10.43;;;23.10;79.20;;;;;;5167447;27;20573;-68
2021/06/19 04:27:29;;;;;;;13.27;10.67;;;23.20;78.00;;;;;;5166266;27;20222;-68
2021/06/19 04:29:56;;;;;;;10.73;9.63;;;23.30;77.20;;;;;;5160932;27;20214;-68
2021/06/19 04:32:23;;;;;;;10.67;9.63;;;23.50;76.40;;;;;;5165082;27;20684;-68
2021/06/19 04:34:51;;;;;;;11.43;9.17;;;23.60;75.60;;;;;;5165703;27;20214;-68
2021/06/19 04:37:18;;;;;;;10.07;8.73;;;23.70;75.20;;;;;;5163991;27;20630;-68
2021/06/19 04:39:54;;;;;;;10.07;8.73;;;23.70;74.40;;;;;;5167017;27;20211;-68
2021/06/19 04:42:23;;;;;;;8.27;7.57;;;23.80;73.50;;;;;;5162384;27;20235;-68
2021/06/19 04:47:25;;;;;;;8.73;7.63;;;23.80;72.50;;;;;;5165023;27;20210;-68
2021/06/19 04:49:53;;;;;;;10.10;7.30;;;23.80;72.10;;;;;;5159946;27;20247;-68
2021/06/19 04:52:22;;;;;;;8.57;6.90;;;23.90;71.90;;;;;;5165932;27;20594;-68
2021/06/19 04:54:49;;;;;;;8.50;7.00;;;24.00;71.30;;;;;;5155593;27;20563;-68
2021/06/19 04:57:17;;;;;;;7.57;6.60;;;24.00;70.80;;;;;;5161302;27;20294;-68
2021/06/19 04:59:44;;;;;;;7.20;6.50;;;24.00;70.20;;;;;;5166024;27;20214;-68
2021/06/19 05:02:11;;;;;;;7.60;6.70;;;24.00;69.80;;;;;;5163298;27;20271;-68
2021/06/19 05:04:38;;;;;;;8.90;6.47;;;24.10;69.40;;;;;;5157995;27;20203;-68
2021/06/19 05:07:05;;;;;;;7.67;6.40;;;24.20;69.10;;;;;;5165624;27;20640;-68
2021/06/19 05:09:33;;;;;;;7.57;6.03;;;24.30;68.40;;;;;;5161798;27;20214;-68
2021/06/19 05:12:00;;;;;;;7.17;6.27;;;24.40;67.80;;;;;;5164500;27;20214;-68
2021/06/19 05:14:28;;;;;;;9.00;6.73;;;24.50;67.40;;;;;;5161458;27;20215;-68
2021/06/19 05:16:55;;;;;;;7.23;6.27;;;24.70;66.90;;;;;;5159539;27;20214;-68
2021/06/19 05:19:25;;;;;;;9.70;6.93;;;24.80;66.10;;;;;;5145356;27;20207;-68
2021/06/19 05:21:53;;;;;;;6.47;5.87;;;24.80;65.90;;;;;;5137733;27;20196;-68
2021/06/19 05:24:20;;;;;;;10.93;6.17;;;24.90;65.60;;;;;;5163096;27;20214;-68
2021/06/19 05:26:48;;;;;;;8.77;5.80;;;24.90;65.30;;;;;;5162355;27;20264;-67
2021/06/19 05:29:15;;;;;;;8.20;5.90;;;25.00;65.00;;;;;;5159627;27;20206;-67
2021/06/19 05:31:42;;;;;;;11.10;6.13;;;25.10;64.90;;;;;;5146549;27;20263;-68
2021/06/19 05:34:09;;;;;;;13.03;5.80;;;25.30;64.50;;;;;;5158399;27;20270;-68
2021/06/19 05:36:36;;;;;;;8.77;5.90;;;25.40;64.20;;;;;;5162546;27;20288;-67
2021/06/19 05:39:04;;;;;;;10.37;6.00;;;25.60;63.70;;;;;;5165820;27;20290;-68
2021/06/19 05:41:31;;;;;;;9.03;5.93;;;25.70;63.40;;;;;;5157175;27;20527;-69
2021/06/19 05:43:58;;;;;;;7.90;6.03;;;25.90;63.40;;;;;;5164722;27;20737;-69
2021/06/19 05:46:25;;;;;;;12.90;6.20;;;26.20;62.90;;;;;;5158381;27;20203;-70
2021/06/19 05:48:56;;;;;;;11.00;6.47;;;26.40;62.10;;;;;;5167028;27;20632;-70
2021/06/19 05:51:24;;;;;;;9.83;5.80;;;26.70;61.30;;;;;;5162328;27;20214;-70
2021/06/19 05:53:51;;;;;;;8.30;5.67;;;26.80;60.70;;;;;;5165344;27;20692;-70
2021/06/19 05:56:20;;;;;;;8.57;5.47;;;27.00;60.40;;;;;;5157908;27;20650;-70
2021/06/19 05:58:47;;;;;;;8.47;4.70;;;27.00;60.00;;;;;;5166546;27;20664;-70
2021/06/19 06:01:14;;;;;;;9.47;5.23;;;27.10;59.50;;;;;;5168057;27;20239;-70
2021/06/19 06:03:42;;;;;;;10.37;4.97;;;27.10;59.10;;;;;;5159651;27;20299;-70
2021/06/19 06:06:09;;;;;;;13.50;5.47;;;27.10;59.20;;;;;;5166652;27;20215;-70
2021/06/19 06:08:36;;;;;;;5.47;4.97;;;27.20;58.40;;;;;;5162200;27;20218;-70
2021/06/19 06:11:03;;;;;;;13.03;5.23;;;27.20;57.90;;;;;;5166325;27;20202;-70
2021/06/19 06:13:30;;;;;;;7.53;5.63;;;27.20;57.80;;;;;;5161720;27;20267;-70
2021/06/19 06:15:57;;;;;;;7.23;5.10;;;27.20;57.70;;;;;;5162356;27;20211;-70
2021/06/19 06:18:24;;;;;;;8.13;4.90;;;27.20;57.60;;;;;;5164806;27;20242;-69
2021/06/19 06:20:51;;;;;;;5.17;4.70;;;27.30;57.90;;;;;;5164382;27;20266;-69
2021/06/19 06:23:18;;;;;;;7.27;4.93;;;27.40;57.40;;;;;;5167343;27;20207;-69
2021/06/19 06:25:45;;;;;;;7.97;4.93;;;27.50;57.40;;;;;;5160457;27;20251;-69
2021/06/19 06:28:12;;;;;;;7.90;5.40;;;27.60;57.30;;;;;;5168308;27;20207;-69
2021/06/19 06:30:39;;;;;;;10.43;5.10;;;27.60;56.60;;;;;;5160940;27;20260;-69
2021/06/19 06:33:06;;;;;;;7.87;5.20;;;27.60;56.90;;;;;;5161389;27;20218;-69
2021/06/19 06:35:34;;;;;;;8.50;5.07;;;27.70;56.80;;;;;;5164984;27;20704;-69
2021/06/19 06:38:01;;;;;;;7.63;4.53;;;27.70;56.80;;;;;;5143951;27;20219;-70
2021/06/19 06:40:28;;;;;;;4.87;4.47;;;27.70;57.00;;;;;;5167046;27;20206;-70
2021/06/19 06:42:55;;;;;;;8.33;5.20;;;27.80;56.80;;;;;;5157769;27;20215;-70
2021/06/19 06:45:22;;;;;;;5.77;4.50;;;27.90;56.40;;;;;;5148678;27;20214;-70
2021/06/19 06:47:51;;;;;;;7.37;4.30;;;27.90;55.60;;;;;;5164546;27;20271;-69
2021/06/19 06:50:18;;;;;;;9.63;4.37;;;28.00;55.70;;;;;;5160758;27;20215;-69
2021/06/19 06:52:46;;;;;;;6.60;4.70;;;28.20;55.60;;;;;;5144082;27;20222;-69
2021/06/19 06:55:13;;;;;;;5.67;4.30;;;28.40;55.60;;;;;;5165628;27;20230;-69
2021/06/19 06:57:41;;;;;;;6.53;3.93;;;28.60;54.70;;;;;;5166482;27;20341;-70
2021/06/19 07:00:09;;;;;;;4.70;3.87;;;28.80;54.30;;;;;;5164589;27;20203;-70
2021/06/19 07:02:40;;;;;;;4.40;4.00;;;29.00;53.80;;;;;;5164282;27;20235;-70
2021/06/19 07:05:09;;;;;;;5.27;4.07;;;29.10;53.50;;;;;;5159848;27;20267;-70
2021/06/19 07:07:37;;;;;;;5.40;3.57;;;29.30;54.10;;;;;;5160123;27;20212;-70
2021/06/19 07:10:06;;;;;;;8.07;4.73;;;29.70;53.90;;;;;;5167441;27;20229;-70
2021/06/19 07:12:36;;;;;;;4.67;4.17;;;30.00;53.30;;;;;;5158884;27;20211;-70
2021/06/19 07:15:04;;;;;;;12.50;4.40;;;30.30;52.10;;;;;;5164383;27;20210;-70
2021/06/19 07:17:31;;;;;;;14.10;4.10;;;30.50;51.40;;;;;;5161059;27;20521;-70
2021/06/19 07:19:58;;;;;;;10.90;4.03;;;30.50;50.60;;;;;;5164579;27;20254;-70
2021/06/19 07:22:25;;;;;;;9.93;4.10;;;30.40;50.60;;;;;;5162963;27;20667;-70
2021/06/19 07:24:52;;;;;;;7.07;3.90;;;30.30;50.80;;;;;;5165021;27;20211;-70
2021/06/19 07:27:19;;;;;;;7.63;3.93;;;30.30;51.00;;;;;;5163350;27;20318;-70
2021/06/19 07:29:45;;;;;;;8.40;4.17;;;30.30;50.50;;;;;;5148644;27;20206;-70
2021/06/19 07:32:12;;;;;;;6.70;3.57;;;30.30;51.10;;;;;;5160135;27;20202;-70
2021/06/19 07:34:40;;;;;;;7.60;3.57;;;30.30;50.30;;;;;;5160026;27;20207;-70
2021/06/19 07:37:07;;;;;;;7.03;3.70;;;30.40;50.40;;;;;;5164262;27;20723;-70
2021/06/19 07:39:34;;;;;;;5.83;3.67;;;30.60;50.50;;;;;;5160319;27;20231;-70
2021/06/19 07:42:01;;;;;;;9.37;4.00;;;30.80;50.30;;;;;;5160623;27;20203;-70
2021/06/19 07:44:28;;;;;;;5.90;3.83;;;31.00;50.00;;;;;;5165721;27;20207;-70
2021/06/19 07:46:55;;;;;;;5.87;3.80;;;31.20;49.80;;;;;;5161613;27;20211;-69
2021/06/19 07:49:23;;;;;;;5.10;3.67;;;31.40;49.10;;;;;;5165339;27;20233;-69
2021/06/19 07:51:50;;;;;;;6.87;3.63;;;31.60;49.00;;;;;;5167073;27;20210;-69
2021/06/19 07:54:17;;;;;;;6.93;3.50;;;31.90;48.30;;;;;;5164113;27;20303;-69
2021/06/19 07:56:45;;;;;;;4.03;3.27;;;32.10;48.30;;;;;;5167953;27;20556;-69
2021/06/19 07:59:12;;;;;;;3.70;3.30;;;32.30;48.40;;;;;;5164607;27;20231;-69
2021/06/19 08:01:39;;;;;;;6.33;3.07;;;32.70;47.70;;;;;;5166456;27;20210;-69
2021/06/19 08:04:06;;;;;;;6.20;3.20;;;32.90;45.90;;;;;;5147399;27;20251;-69
2021/06/19 08:06:33;;;;;;;5.30;2.87;;;33.10;44.60;;;;;;5165551;27;20215;-69
2021/06/19 08:09:01;;;;;;;6.30;3.60;;;33.10;44.90;;;;;;5165014;27;20233;-69
2021/06/19 08:11:28;;;;;;;5.43;3.30;;;32.90;44.20;;;;;;5158972;27;20221;-69
2021/06/19 08:13:55;;;;;;;5.47;3.00;;;32.70;43.90;;;;;;5167502;27;20224;-70
2021/06/19 08:16:22;;;;;;;5.83;3.00;;;32.40;44.00;;;;;;5156900;27;20214;-69
2021/06/19 08:18:49;;;;;;;12.03;3.70;;;32.20;45.00;;;;;;5166573;27;20228;-69
2021/06/19 08:21:16;;;;;;;3.37;2.77;;;32.10;45.10;;;;;;5165024;27;20218;-69
2021/06/19 08:23:43;;;;;;;4.33;2.93;;;32.20;45.70;;;;;;5165573;27;20207;-69
2021/06/19 08:26:10;;;;;;;7.10;2.87;;;32.50;44.70;;;;;;5165760;27;20207;-69
2021/06/19 08:28:37;;;;;;;6.87;3.17;;;32.90;44.60;;;;;;5164864;27;20219;-69
2021/06/19 08:31:04;;;;;;;4.53;2.70;;;33.20;44.20;;;;;;5166762;27;20266;-69
2021/06/19 08:33:32;;;;;;;3.93;2.97;;;33.50;43.30;;;;;;5163223;27;20219;-69
2021/06/19 08:35:59;;;;;;;4.33;2.77;;;33.80;42.70;;;;;;5159561;27;20619;-69
2021/06/19 08:38:26;;;;;;;5.43;2.60;;;33.80;41.80;;;;;;5164241;27;20287;-69
2021/06/19 08:40:53;;;;;;;5.83;3.07;;;33.60;41.40;;;;;;5164721;27;20214;-69
2021/06/19 08:43:20;;;;;;;5.80;2.80;;;33.60;41.50;;;;;;5164946;27;20211;-69
2021/06/19 08:45:50;;;;;;;3.40;2.80;;;33.50;41.70;;;;;;5150482;27;20216;-69
2021/06/19 08:48:19;;;;;;;5.80;2.70;;;33.50;42.10;;;;;;5166805;27;20210;-69
2021/06/19 08:50:47;;;;;;;6.33;2.50;;;33.30;41.90;;;;;;5159120;27;20705;-69
2021/06/19 08:53:17;;;;;;;4.10;2.70;;;33.20;41.60;;;;;;5166051;27;20214;-69
2021/06/19 08:55:46;;;;;;;5.47;2.80;;;33.10;42.00;;;;;;5164922;27;20263;-69
2021/06/19 08:58:13;;;;;;;4.83;2.90;;;33.00;41.80;;;;;;5164576;27;20752;-69
2021/06/19 09:00:43;;;;;;;5.63;4.10;;;32.80;42.10;;;;;;5167081;27;20273;-69
2021/06/19 09:03:24;;;;;;;6.60;3.50;;;32.70;42.70;;;;;;5161545;27;20207;-69
2021/06/19 09:06:12;;;;;;;9.60;3.10;;;32.60;41.90;;;;;;5165827;27;20206;-69
2021/06/19 09:08:58;;;;;;;4.47;2.83;;;32.30;41.90;;;;;;5162729;27;20234;-69
2021/06/19 09:11:30;;;;;;;5.13;3.30;;;32.30;42.50;;;;;;5147910;27;20643;-69
2021/06/19 09:14:04;;;;;;;5.63;2.60;;;32.50;42.60;;;;;;5165288;27;20210;-69
2021/06/19 09:16:32;;;;;;;3.73;3.10;;;32.60;43.10;;;;;;5162520;27;20281;-69
2021/06/19 09:18:59;;;;;;;5.37;3.03;;;32.70;42.30;;;;;;5159890;27;20218;-69
2021/06/19 09:21:35;;;;;;;3.83;2.87;;;32.80;42.40;;;;;;5164839;27;20260;-69
2021/06/19 09:24:02;;;;;;;12.60;3.30;;;32.70;42.40;;;;;;5171491;27;20279;-69
2021/06/19 09:26:32;;;;;;;5.03;2.90;;;32.70;43.20;;;;;;5167475;27;20243;-69
2021/06/19 09:28:59;;;;;;;7.87;3.20;;;32.80;43.30;;;;;;5170472;27;20209;-69
2021/06/19 09:31:33;;;;;;;3.57;2.73;;;33.10;43.50;;;;;;5164864;27;20211;-69
2021/06/19 09:34:07;;;;;;;3.67;3.30;;;33.30;43.30;;;;;;5168667;27;20215;-69
2021/06/19 09:36:40;;;;;;;3.60;3.13;;;33.40;41.80;;;;;;5167126;27;20214;-69
2021/06/19 09:39:09;;;;;;;3.17;2.87;;;33.40;42.40;;;;;;5163793;27;20299;-69
2021/06/19 09:41:38;;;;;;;4.77;3.30;;;33.50;42.50;;;;;;5168855;27;20217;-69
2021/06/19 09:44:06;;;;;;;5.90;3.33;;;33.70;42.30;;;;;;5168298;27;20211;-69
2021/06/19 09:46:33;;;;;;;4.60;3.10;;;33.70;42.50;;;;;;5165212;27;20210;-69
2021/06/19 09:49:17;;;;;;;3.33;2.73;;;33.90;41.70;;;;;;5151545;27;20713;-69
2021/06/19 09:51:47;;;;;;;4.70;2.87;;;34.30;40.60;;;;;;5166457;27;20215;-69
2021/06/19 09:54:14;;;;;;;4.53;2.87;;;34.50;40.20;;;;;;5144875;27;20255;-69
2021/06/19 09:56:53;;;;;;;5.83;2.67;;;34.50;39.80;;;;;;5149527;27;20287;-69
2021/06/19 09:59:29;;;;;;;5.30;2.63;;;34.40;39.10;;;;;;5140720;27;20288;-69
2021/06/19 10:01:58;;;;;;;2.40;2.20;;;34.40;39.50;;;;;;5141104;27;20675;-69
2021/06/19 10:04:27;;;;;;;4.00;2.60;;;34.30;38.90;;;;;;5141501;27;20195;-69
2021/06/19 10:06:55;;;;;;;2.50;2.30;;;34.30;39.00;;;;;;5146533;27;20208;-69
2021/06/19 10:09:22;;;;;;;3.27;2.97;;;34.20;39.20;;;;;;5143054;27;20207;-69
2021/06/19 10:11:51;;;;;;;4.00;2.50;;;34.40;38.00;;;;;;5147673;27;20276;-69
2021/06/19 10:14:21;;;;;;;4.80;2.73;;;34.30;37.40;;;;;;5146076;27;20226;-69
2021/06/19 10:16:51;;;;;;;6.87;2.60;;;34.10;37.30;;;;;;5142013;27;20219;-69
2021/06/19 10:19:22;;;;;;;3.10;2.70;;;34.10;37.80;;;;;;5144677;27;20223;-69
2021/06/19 10:21:51;;;;;;;4.20;2.80;;;34.30;38.10;;;;;;5146907;27;20212;-69
2021/06/19 10:24:20;;;;;;;5.83;2.90;;;34.60;38.70;;;;;;5146299;27;20238;-69
2021/06/19 10:26:48;;;;;;;7.47;3.20;;;34.90;38.40;;;;;;5148576;27;20662;-69
2021/06/19 10:29:16;;;;;;;2.63;2.33;;;35.10;38.60;;;;;;5141095;27;20291;-69
2021/06/19 10:31:46;;;;;;;4.17;2.80;;;35.30;38.00;;;;;;5144365;27;20216;-69
2021/06/19 10:34:26;;;;;;;5.13;2.70;;;35.50;37.90;;;;;;5144044;27;20909;-69
2021/06/19 10:36:57;;;;;;;3.67;2.13;;;35.60;37.50;;;;;;5144570;27;20211;-69
2021/06/19 10:39:31;;;;;;;4.77;2.57;;;35.80;37.00;;;;;;5139897;27;20231;-69
2021/06/19 10:41:59;;;;;;;3.63;2.60;;;35.80;36.10;;;;;;5146214;27;20786;-69
2021/06/19 10:44:52;;;;;;;4.17;2.93;;;35.70;36.50;;;;;;5147808;27;20255;-69
2021/06/19 10:47:22;;;;;;;6.60;2.53;;;35.40;36.80;;;;;;5143259;27;20632;-69
2021/06/19 10:49:50;;;;;;;2.63;2.43;;;35.10;37.10;;;;;;5140649;27;20242;-69
2021/06/19 10:52:38;;;;;;;6.37;2.40;;;34.80;37.60;;;;;;5147632;27;20219;-69
2021/06/19 10:55:08;;;;;;;3.70;2.40;;;34.60;39.50;;;;;;5158799;27;20299;-69
2021/06/19 10:58:04;;;;;;;3.03;2.53;;;34.50;39.30;;;;;;5167846;27;20619;-69
2021/06/19 11:00:46;;;;;;;7.00;2.93;;;34.50;40.00;;;;;;5149195;27;20227;-69
2021/06/19 11:03:16;;;;;;;6.30;2.73;;;34.70;39.70;;;;;;5161223;27;20202;-69
2021/06/19 11:05:43;;;;;;;7.07;3.00;;;34.90;39.50;;;;;;5164688;27;20249;-69
2021/06/19 11:08:11;;;;;;;6.87;3.23;;;35.00;39.80;;;;;;5164551;27;20535;-69
2021/06/19 11:10:58;;;;;;;4.20;2.70;;;34.90;39.10;;;;;;5167921;27;20210;-69
2021/06/19 11:13:31;;;;;;;5.63;2.90;;;34.90;39.30;;;;;;5164285;27;20222;-69
2021/06/19 11:15:59;;;;;;;3.43;2.90;;;35.10;38.60;;;;;;5164951;27;20674;-69
2021/06/19 11:18:51;;;;;;;5.33;2.50;;;35.30;38.20;;;;;;5164369;27;20624;-69
2021/06/19 11:21:32;;;;;;;6.07;2.50;;;35.30;38.50;;;;;;5167985;27;20317;-69
2021/06/19 11:23:59;;;;;;;3.27;2.93;;;35.30;38.10;;;;;;5158249;27;20217;-69
2021/06/19 11:29:41;;;;;;;9.60;2.70;;;35.60;38.50;;;;;;5165774;27;20247;-69
2021/06/19 11:32:32;;;;;;;4.60;2.47;;;35.80;38.30;;;;;;5158858;27;20219;-69
2021/06/19 11:35:01;;;;;;;3.40;2.20;;;35.90;37.10;;;;;;5164699;27;20245;-69
2021/06/19 11:37:53;;;;;;;3.13;2.50;;;36.00;37.60;;;;;;5165516;27;20781;-69
2021/06/19 11:40:31;;;;;;;4.10;2.53;;;36.20;38.00;;;;;;5165817;27;20754;-69
2021/06/19 11:42:59;;;;;;;6.43;3.03;;;36.30;37.30;;;;;;5162352;27;20207;-69
2021/06/19 11:45:26;;;;;;;2.90;2.20;;;36.20;36.70;;;;;;5163753;27;20215;-69
2021/06/19 11:48:03;;;;;;;4.10;2.30;;;36.20;38.00;;;;;;5166247;27;20207;-69
2021/06/19 11:50:35;;;;;;;4.50;2.47;;;36.30;37.70;;;;;;5163983;27;20215;-69
2021/06/19 11:53:24;;;;;;;3.07;2.53;;;36.20;37.70;;;;;;5168076;27;20222;-69
2021/06/19 11:55:51;;;;;;;2.67;2.43;;;36.20;37.50;;;;;;5156122;27;20214;-69
2021/06/19 11:58:18;;;;;;;3.10;2.77;;;36.20;36.90;;;;;;5165416;27;20215;-69
2021/06/19 12:00:53;;;;;;;4.17;2.50;;;36.20;36.00;;;;;;5165768;27;20234;-69
2021/06/19 12:03:23;;;;;;;4.20;2.53;;;36.10;37.00;;;;;;5161529;27;20245;-69
2021/06/19 12:05:51;;;;;;;2.53;2.33;;;36.10;36.20;;;;;;5160457;27;20219;-69
2021/06/19 12:08:26;;;;;;;5.83;2.57;;;36.10;35.90;;;;;;5165741;27;20253;-69
2021/06/19 12:10:54;;;;;;;3.90;2.27;;;36.10;36.40;;;;;;5163555;27;20237;-69
2021/06/19 12:13:33;;;;;;;2.70;2.50;;;36.10;36.60;;;;;;5166959;27;20225;-69
2021/06/19 12:16:02;;;;;;;3.40;2.73;;;36.10;36.70;;;;;;5159542;27;20218;-69
2021/06/19 12:18:29;;;;;;;2.70;2.50;;;35.90;36.30;;;;;;5166969;27;20734;-69
2021/06/19 12:21:05;;;;;;;3.03;2.27;;;35.70;36.40;;;;;;5164630;27;20223;-69
2021/06/19 12:23:40;;;;;;;4.43;2.43;;;35.40;37.50;;;;;;5159551;27;20210;-69
2021/06/19 12:26:13;;;;;;;4.80;2.30;;;35.40;37.40;;;;;;5165792;27;20286;-69
2021/06/19 12:28:46;;;;;;;2.80;2.40;;;35.40;36.20;;;;;;5163869;27;20210;-69
2021/06/19 12:31:14;;;;;;;6.63;2.47;;;35.40;36.10;;;;;;5160356;27;20218;-69
2021/06/19 12:33:43;;;;;;;3.07;2.10;;;35.30;36.30;;;;;;5164782;27;20643;-69
2021/06/19 12:36:12;;;;;;;4.47;2.70;;;35.10;37.20;;;;;;5165538;27;20206;-69
2021/06/19 12:38:45;;;;;;;4.83;2.87;;;35.20;38.20;;;;;;5157089;27;20214;-69
2021/06/19 12:41:12;;;;;;;3.97;2.30;;;35.20;36.80;;;;;;5159620;27;20203;-69
2021/06/19 12:43:54;;;;;;;3.47;2.40;;;35.30;36.80;;;;;;5166444;27;20222;-69
2021/06/19 12:46:23;;;;;;;4.37;2.20;;;35.30;36.50;;;;;;5162962;27;20228;-69
2021/06/19 12:49:02;;;;;;;2.60;2.30;;;35.20;37.60;;;;;;5153972;27;20226;-69
2021/06/19 12:51:39;;;;;;;4.33;2.70;;;35.20;36.20;;;;;;5165430;27;20210;-69
2021/06/19 12:54:19;;;;;;;5.57;2.40;;;35.00;35.90;;;;;;5158992;27;20246;-67
2021/06/19 12:56:52;;;;;;;6.43;2.83;;;34.90;37.40;;;;;;5167932;27;20213;-68